sensor_id;sensor_type;location;lat;lon;timestamp;temperature;humidity
816;DHT22;25928;51.062;13.752;2023-05-16T00:00:23;14.70;1.00
816;DHT22;25928;51.062;13.752;2023-05-16T00:02:53;14.80;1.00
816;DHT22;25928;51.062;13.752;2023-05-16T00:05:18;14.80;1.00
816;DHT22;25928;51.062;13.752;2023-05-16T00:07:45;14.80;1.00
816;DHT22;25928;51.062;13.752;2023-05-16T00:10:11;14.80;1.00
816;DHT22;25928;51.062;13.752;2023-05-16T00:12:38;14.60;1.00
816;DHT22;25928;51.062;13.752;2023-05-16T00:15:10;14.60;1.00
816;DHT22;25928;51.062;13.752;2023-05-16T00:17:39;14.70;1.00
816;DHT22;25928;51.062;13.752;2023-05-16T00:20:05;14.70;1.00
816;DHT22;25928;51.062;13.752;2023-05-16T00:22:36;13.90;1.00
816;DHT22;25928;51.062;13.752;2023-05-16T00:25:02;14.60;1.00
816;DHT22;25928;51.062;13.752;2023-05-16T00:27:28;14.50;1.00
816;DHT22;25928;51.062;13.752;2023-05-16T00:29:54;14.60;1.00
816;DHT22;25928;51.062;13.752;2023-05-16T00:32:20;14.50;1.00
816;DHT22;25928;51.062;13.752;2023-05-16T00:34:46;14.40;1.00
816;DHT22;25928;51.062;13.752;2023-05-16T00:37:12;14.30;1.00
816;DHT22;25928;51.062;13.752;2023-05-16T00:39:37;14.30;1.00
816;DHT22;25928;51.062;13.752;2023-05-16T00:42:03;14.30;1.00
816;DHT22;25928;51.062;13.752;2023-05-16T00:44:29;14.40;1.00
816;DHT22;25928;51.062;13.752;2023-05-16T00:46:55;14.40;1.00
816;DHT22;25928;51.062;13.752;2023-05-16T00:49:21;14.30;1.00
816;DHT22;25928;51.062;13.752;2023-05-16T00:51:47;14.30;1.00
816;DHT22;25928;51.062;13.752;2023-05-16T00:54:13;14.30;1.00
816;DHT22;25928;51.062;13.752;2023-05-16T00:56:39;14.20;1.00
816;DHT22;25928;51.062;13.752;2023-05-16T00:59:05;14.30;1.00
816;DHT22;25928;51.062;13.752;2023-05-16T01:01:31;14.30;1.00
816;DHT22;25928;51.062;13.752;2023-05-16T01:03:59;14.20;1.00
816;DHT22;25928;51.062;13.752;2023-05-16T01:06:25;14.20;1.00
816;DHT22;25928;51.062;13.752;2023-05-16T01:08:51;14.20;1.00
816;DHT22;25928;51.062;13.752;2023-05-16T01:11:42;14.20;1.00
816;DHT22;25928;51.062;13.752;2023-05-16T01:17:07;14.20;1.00
816;DHT22;25928;51.062;13.752;2023-05-16T01:27:42;14.20;1.00
816;DHT22;25928;51.062;13.752;2023-05-16T01:30:16;14.10;1.00
816;DHT22;25928;51.062;13.752;2023-05-16T01:32:42;14.10;1.00
816;DHT22;25928;51.062;13.752;2023-05-16T01:35:10;14.10;1.00
816;DHT22;25928;51.062;13.752;2023-05-16T01:38:51;14.10;1.00
816;DHT22;25928;51.062;13.752;2023-05-16T01:41:02;14.00;1.00
816;DHT22;25928;51.062;13.752;2023-05-16T01:43:33;14.00;1.00
816;DHT22;25928;51.062;13.752;2023-05-16T01:46:09;14.10;1.00
816;DHT22;25928;51.062;13.752;2023-05-16T01:49:02;14.00;1.00
816;DHT22;25928;51.062;13.752;2023-05-16T01:51:31;14.00;1.00
816;DHT22;25928;51.062;13.752;2023-05-16T01:54:07;13.90;1.00
816;DHT22;25928;51.062;13.752;2023-05-16T01:56:36;14.00;1.00
816;DHT22;25928;51.062;13.752;2023-05-16T01:59:03;14.10;1.00
816;DHT22;25928;51.062;13.752;2023-05-16T02:01:29;14.20;1.00
816;DHT22;25928;51.062;13.752;2023-05-16T02:03:57;14.00;1.00
816;DHT22;25928;51.062;13.752;2023-05-16T02:06:23;14.00;1.00
816;DHT22;25928;51.062;13.752;2023-05-16T02:08:50;14.00;1.00
816;DHT22;25928;51.062;13.752;2023-05-16T02:11:16;14.00;1.00
816;DHT22;25928;51.062;13.752;2023-05-16T02:13:41;14.00;1.00
816;DHT22;25928;51.062;13.752;2023-05-16T02:16:09;14.00;1.00
816;DHT22;25928;51.062;13.752;2023-05-16T02:18:35;14.00;1.00
816;DHT22;25928;51.062;13.752;2023-05-16T02:21:01;13.90;1.00
816;DHT22;25928;51.062;13.752;2023-05-16T02:23:26;14.00;1.00
816;DHT22;25928;51.062;13.752;2023-05-16T02:25:52;13.90;1.00
816;DHT22;25928;51.062;13.752;2023-05-16T02:28:18;13.80;1.00
816;DHT22;25928;51.062;13.752;2023-05-16T02:30:43;13.80;1.00
816;DHT22;25928;51.062;13.752;2023-05-16T02:33:10;13.70;1.00
816;DHT22;25928;51.062;13.752;2023-05-16T02:35:35;13.70;1.00
816;DHT22;25928;51.062;13.752;2023-05-16T02:38:01;13.70;1.00
816;DHT22;25928;51.062;13.752;2023-05-16T02:40:26;13.80;1.00
816;DHT22;25928;51.062;13.752;2023-05-16T02:42:52;13.70;1.00
816;DHT22;25928;51.062;13.752;2023-05-16T02:45:18;13.80;1.00
816;DHT22;25928;51.062;13.752;2023-05-16T02:47:43;13.80;1.00
816;DHT22;25928;51.062;13.752;2023-05-16T02:50:09;13.80;1.00
816;DHT22;25928;51.062;13.752;2023-05-16T02:52:35;13.90;1.00
816;DHT22;25928;51.062;13.752;2023-05-16T02:55:00;13.90;1.00
816;DHT22;25928;51.062;13.752;2023-05-16T02:57:26;14.10;1.00
816;DHT22;25928;51.062;13.752;2023-05-16T02:59:52;14.10;1.00
816;DHT22;25928;51.062;13.752;2023-05-16T03:02:18;14.10;1.00
816;DHT22;25928;51.062;13.752;2023-05-16T03:04:43;14.20;1.00
816;DHT22;25928;51.062;13.752;2023-05-16T03:07:09;14.30;1.00
816;DHT22;25928;51.062;13.752;2023-05-16T03:09:34;14.20;1.00
816;DHT22;25928;51.062;13.752;2023-05-16T03:12:00;14.30;1.00
816;DHT22;25928;51.062;13.752;2023-05-16T03:14:26;14.30;1.00
816;DHT22;25928;51.062;13.752;2023-05-16T03:16:51;14.50;1.00
816;DHT22;25928;51.062;13.752;2023-05-16T03:19:17;14.40;1.00
816;DHT22;25928;51.062;13.752;2023-05-16T03:21:42;14.30;1.00
816;DHT22;25928;51.062;13.752;2023-05-16T03:24:08;14.20;1.00
816;DHT22;25928;51.062;13.752;2023-05-16T03:26:34;14.30;1.00
816;DHT22;25928;51.062;13.752;2023-05-16T03:28:59;14.30;1.00
816;DHT22;25928;51.062;13.752;2023-05-16T03:31:25;14.40;1.00
816;DHT22;25928;51.062;13.752;2023-05-16T03:33:50;14.40;1.00
816;DHT22;25928;51.062;13.752;2023-05-16T03:36:16;14.50;1.00
816;DHT22;25928;51.062;13.752;2023-05-16T03:38:42;14.40;1.00
816;DHT22;25928;51.062;13.752;2023-05-16T03:41:07;14.30;1.00
816;DHT22;25928;51.062;13.752;2023-05-16T03:43:33;14.30;1.00
816;DHT22;25928;51.062;13.752;2023-05-16T03:46:00;14.50;1.00
816;DHT22;25928;51.062;13.752;2023-05-16T03:48:26;14.40;1.00
816;DHT22;25928;51.062;13.752;2023-05-16T03:50:52;14.40;1.00
816;DHT22;25928;51.062;13.752;2023-05-16T03:53:17;14.40;1.00
816;DHT22;25928;51.062;13.752;2023-05-16T03:55:43;14.50;1.00
816;DHT22;25928;51.062;13.752;2023-05-16T03:58:08;14.60;1.00
816;DHT22;25928;51.062;13.752;2023-05-16T04:00:34;14.60;1.00
816;DHT22;25928;51.062;13.752;2023-05-16T04:03:01;14.50;1.00
816;DHT22;25928;51.062;13.752;2023-05-16T04:05:26;14.60;1.00
816;DHT22;25928;51.062;13.752;2023-05-16T04:07:53;14.50;1.00
816;DHT22;25928;51.062;13.752;2023-05-16T04:10:19;14.60;1.00
816;DHT22;25928;51.062;13.752;2023-05-16T04:12:45;14.60;1.00
816;DHT22;25928;51.062;13.752;2023-05-16T04:15:10;14.80;1.00
816;DHT22;25928;51.062;13.752;2023-05-16T04:17:36;14.80;1.00
816;DHT22;25928;51.062;13.752;2023-05-16T04:20:01;14.80;1.00
816;DHT22;25928;51.062;13.752;2023-05-16T04:22:29;14.80;1.00
816;DHT22;25928;51.062;13.752;2023-05-16T04:24:55;14.70;1.00
816;DHT22;25928;51.062;13.752;2023-05-16T04:27:21;14.70;1.00
816;DHT22;25928;51.062;13.752;2023-05-16T04:29:47;14.70;1.00
816;DHT22;25928;51.062;13.752;2023-05-16T04:32:13;14.60;1.00
816;DHT22;25928;51.062;13.752;2023-05-16T04:34:42;14.50;1.00
816;DHT22;25928;51.062;13.752;2023-05-16T04:37:09;14.60;1.00
816;DHT22;25928;51.062;13.752;2023-05-16T04:39:36;14.60;1.00
816;DHT22;25928;51.062;13.752;2023-05-16T04:42:01;14.60;1.00
816;DHT22;25928;51.062;13.752;2023-05-16T04:44:27;14.70;1.00
816;DHT22;25928;51.062;13.752;2023-05-16T04:46:53;14.70;1.00
816;DHT22;25928;51.062;13.752;2023-05-16T04:49:20;14.60;1.00
816;DHT22;25928;51.062;13.752;2023-05-16T04:51:46;14.60;1.00
816;DHT22;25928;51.062;13.752;2023-05-16T04:54:12;14.40;1.00
816;DHT22;25928;51.062;13.752;2023-05-16T04:56:38;14.40;1.00
816;DHT22;25928;51.062;13.752;2023-05-16T04:59:03;14.50;1.00
816;DHT22;25928;51.062;13.752;2023-05-16T05:01:29;14.50;1.00
816;DHT22;25928;51.062;13.752;2023-05-16T05:03:55;14.50;1.00
816;DHT22;25928;51.062;13.752;2023-05-16T05:06:21;14.40;1.00
816;DHT22;25928;51.062;13.752;2023-05-16T05:08:47;14.50;1.00
816;DHT22;25928;51.062;13.752;2023-05-16T05:11:12;14.40;1.00
816;DHT22;25928;51.062;13.752;2023-05-16T05:13:38;14.40;1.00
816;DHT22;25928;51.062;13.752;2023-05-16T05:16:04;14.40;1.00
816;DHT22;25928;51.062;13.752;2023-05-16T05:18:30;14.40;1.00
816;DHT22;25928;51.062;13.752;2023-05-16T05:20:56;14.30;1.00
816;DHT22;25928;51.062;13.752;2023-05-16T05:23:22;14.00;1.00
816;DHT22;25928;51.062;13.752;2023-05-16T05:25:48;14.00;1.00
816;DHT22;25928;51.062;13.752;2023-05-16T05:28:14;13.90;1.00
816;DHT22;25928;51.062;13.752;2023-05-16T05:30:40;14.00;1.00
816;DHT22;25928;51.062;13.752;2023-05-16T05:33:05;13.90;1.00
816;DHT22;25928;51.062;13.752;2023-05-16T05:35:31;14.10;1.00
816;DHT22;25928;51.062;13.752;2023-05-16T05:37:56;14.10;1.00
816;DHT22;25928;51.062;13.752;2023-05-16T05:40:22;14.10;1.00
816;DHT22;25928;51.062;13.752;2023-05-16T05:42:47;14.00;1.00
816;DHT22;25928;51.062;13.752;2023-05-16T05:45:14;13.80;1.00
816;DHT22;25928;51.062;13.752;2023-05-16T05:47:40;13.70;1.00
816;DHT22;25928;51.062;13.752;2023-05-16T05:50:07;13.90;1.00
816;DHT22;25928;51.062;13.752;2023-05-16T05:52:33;13.90;1.00
816;DHT22;25928;51.062;13.752;2023-05-16T05:54:58;13.80;1.00
816;DHT22;25928;51.062;13.752;2023-05-16T05:57:24;13.90;1.00
816;DHT22;25928;51.062;13.752;2023-05-16T05:59:50;13.80;1.00
816;DHT22;25928;51.062;13.752;2023-05-16T06:02:16;13.90;1.00
816;DHT22;25928;51.062;13.752;2023-05-16T06:04:41;13.90;1.00
816;DHT22;25928;51.062;13.752;2023-05-16T06:07:07;13.80;1.00
816;DHT22;25928;51.062;13.752;2023-05-16T06:09:33;13.70;1.00
816;DHT22;25928;51.062;13.752;2023-05-16T06:11:58;13.50;1.00
816;DHT22;25928;51.062;13.752;2023-05-16T06:14:24;13.50;1.00
816;DHT22;25928;51.062;13.752;2023-05-16T06:16:50;13.40;1.00
816;DHT22;25928;51.062;13.752;2023-05-16T06:19:17;13.30;1.00
816;DHT22;25928;51.062;13.752;2023-05-16T06:21:42;13.30;1.00
816;DHT22;25928;51.062;13.752;2023-05-16T06:24:09;13.30;1.00
816;DHT22;25928;51.062;13.752;2023-05-16T06:26:35;13.20;1.00
816;DHT22;25928;51.062;13.752;2023-05-16T06:29:01;13.10;1.00
816;DHT22;25928;51.062;13.752;2023-05-16T06:31:26;12.90;1.00
816;DHT22;25928;51.062;13.752;2023-05-16T06:33:52;12.80;1.00
816;DHT22;25928;51.062;13.752;2023-05-16T06:36:17;12.80;1.00
816;DHT22;25928;51.062;13.752;2023-05-16T06:38:43;13.00;1.00
816;DHT22;25928;51.062;13.752;2023-05-16T06:41:09;12.90;1.00
816;DHT22;25928;51.062;13.752;2023-05-16T06:43:35;12.90;1.00
816;DHT22;25928;51.062;13.752;2023-05-16T06:46:01;13.00;1.00
816;DHT22;25928;51.062;13.752;2023-05-16T06:48:28;13.10;1.00
816;DHT22;25928;51.062;13.752;2023-05-16T06:50:54;13.10;1.00
816;DHT22;25928;51.062;13.752;2023-05-16T06:53:19;12.90;1.00
816;DHT22;25928;51.062;13.752;2023-05-16T06:55:46;12.80;1.00
816;DHT22;25928;51.062;13.752;2023-05-16T06:58:11;12.90;1.00
816;DHT22;25928;51.062;13.752;2023-05-16T07:00:37;12.90;1.00
816;DHT22;25928;51.062;13.752;2023-05-16T07:03:03;12.80;1.00
816;DHT22;25928;51.062;13.752;2023-05-16T07:05:29;12.80;1.00
816;DHT22;25928;51.062;13.752;2023-05-16T07:07:54;12.80;1.00
816;DHT22;25928;51.062;13.752;2023-05-16T07:10:20;12.90;1.00
816;DHT22;25928;51.062;13.752;2023-05-16T07:12:46;13.00;1.00
816;DHT22;25928;51.062;13.752;2023-05-16T07:15:13;12.90;1.00
816;DHT22;25928;51.062;13.752;2023-05-16T07:17:39;12.90;1.00
816;DHT22;25928;51.062;13.752;2023-05-16T07:20:05;12.90;1.00
816;DHT22;25928;51.062;13.752;2023-05-16T07:22:32;12.70;1.00
816;DHT22;25928;51.062;13.752;2023-05-16T07:24:58;12.60;1.00
816;DHT22;25928;51.062;13.752;2023-05-16T07:27:25;12.50;1.00
816;DHT22;25928;51.062;13.752;2023-05-16T07:29:52;12.40;1.00
816;DHT22;25928;51.062;13.752;2023-05-16T07:32:17;12.30;1.00
816;DHT22;25928;51.062;13.752;2023-05-16T07:34:43;12.30;1.00
816;DHT22;25928;51.062;13.752;2023-05-16T07:37:08;12.50;1.00
816;DHT22;25928;51.062;13.752;2023-05-16T07:39:38;12.40;1.00
816;DHT22;25928;51.062;13.752;2023-05-16T07:42:05;12.40;1.00
816;DHT22;25928;51.062;13.752;2023-05-16T07:44:30;12.40;1.00
816;DHT22;25928;51.062;13.752;2023-05-16T07:46:56;12.50;1.00
816;DHT22;25928;51.062;13.752;2023-05-16T07:49:22;12.60;1.00
816;DHT22;25928;51.062;13.752;2023-05-16T07:51:47;12.60;1.00
816;DHT22;25928;51.062;13.752;2023-05-16T07:54:13;12.60;1.00
816;DHT22;25928;51.062;13.752;2023-05-16T07:56:38;12.50;1.00
816;DHT22;25928;51.062;13.752;2023-05-16T07:59:04;12.50;1.00
816;DHT22;25928;51.062;13.752;2023-05-16T08:01:30;12.30;1.00
816;DHT22;25928;51.062;13.752;2023-05-16T08:03:55;12.40;1.00
816;DHT22;25928;51.062;13.752;2023-05-16T08:06:21;12.50;1.00
816;DHT22;25928;51.062;13.752;2023-05-16T08:08:47;12.60;1.00
816;DHT22;25928;51.062;13.752;2023-05-16T08:11:12;12.80;1.00
816;DHT22;25928;51.062;13.752;2023-05-16T08:13:38;12.70;1.00
816;DHT22;25928;51.062;13.752;2023-05-16T08:16:04;12.70;1.00
816;DHT22;25928;51.062;13.752;2023-05-16T08:18:29;12.70;1.00
816;DHT22;25928;51.062;13.752;2023-05-16T08:20:55;12.60;1.00
816;DHT22;25928;51.062;13.752;2023-05-16T08:23:21;12.70;1.00
816;DHT22;25928;51.062;13.752;2023-05-16T08:25:46;12.80;1.00
816;DHT22;25928;51.062;13.752;2023-05-16T08:28:12;12.70;1.00
816;DHT22;25928;51.062;13.752;2023-05-16T08:30:37;12.70;1.00
816;DHT22;25928;51.062;13.752;2023-05-16T08:33:04;12.70;1.00
816;DHT22;25928;51.062;13.752;2023-05-16T08:35:31;12.70;1.00
816;DHT22;25928;51.062;13.752;2023-05-16T08:37:57;12.80;1.00
816;DHT22;25928;51.062;13.752;2023-05-16T08:40:25;12.70;1.00
816;DHT22;25928;51.062;13.752;2023-05-16T08:42:51;12.60;1.00
816;DHT22;25928;51.062;13.752;2023-05-16T08:45:18;12.70;1.00
816;DHT22;25928;51.062;13.752;2023-05-16T08:47:44;12.80;1.00
816;DHT22;25928;51.062;13.752;2023-05-16T08:50:13;12.80;1.00
816;DHT22;25928;51.062;13.752;2023-05-16T08:52:41;12.80;1.00
816;DHT22;25928;51.062;13.752;2023-05-16T08:55:08;12.70;1.00
816;DHT22;25928;51.062;13.752;2023-05-16T08:57:36;12.60;1.00
816;DHT22;25928;51.062;13.752;2023-05-16T09:00:02;12.50;1.00
816;DHT22;25928;51.062;13.752;2023-05-16T09:02:37;12.50;1.00
816;DHT22;25928;51.062;13.752;2023-05-16T09:05:03;12.50;1.00
816;DHT22;25928;51.062;13.752;2023-05-16T09:07:30;12.60;1.00
816;DHT22;25928;51.062;13.752;2023-05-16T09:09:56;12.60;1.00
816;DHT22;25928;51.062;13.752;2023-05-16T09:12:21;12.70;1.00
816;DHT22;25928;51.062;13.752;2023-05-16T09:14:47;12.70;1.00
816;DHT22;25928;51.062;13.752;2023-05-16T09:17:13;12.70;1.00
816;DHT22;25928;51.062;13.752;2023-05-16T09:19:41;12.60;1.00
816;DHT22;25928;51.062;13.752;2023-05-16T09:22:14;12.60;1.00
816;DHT22;25928;51.062;13.752;2023-05-16T09:24:44;12.60;1.00
816;DHT22;25928;51.062;13.752;2023-05-16T09:27:10;12.70;1.00
816;DHT22;25928;51.062;13.752;2023-05-16T09:29:39;12.70;1.00
816;DHT22;25928;51.062;13.752;2023-05-16T09:32:13;12.80;1.00
816;DHT22;25928;51.062;13.752;2023-05-16T09:34:47;12.80;1.00
816;DHT22;25928;51.062;13.752;2023-05-16T09:37:19;12.90;1.00
816;DHT22;25928;51.062;13.752;2023-05-16T09:39:47;13.00;1.00
816;DHT22;25928;51.062;13.752;2023-05-16T09:42:14;13.10;1.00
816;DHT22;25928;51.062;13.752;2023-05-16T09:44:41;13.30;1.00
816;DHT22;25928;51.062;13.752;2023-05-16T09:47:10;13.30;1.00
816;DHT22;25928;51.062;13.752;2023-05-16T09:49:36;13.40;1.00
816;DHT22;25928;51.062;13.752;2023-05-16T09:52:02;13.40;1.00
816;DHT22;25928;51.062;13.752;2023-05-16T09:54:32;13.40;1.00
816;DHT22;25928;51.062;13.752;2023-05-16T09:56:58;13.30;1.00
816;DHT22;25928;51.062;13.752;2023-05-16T09:59:27;13.30;1.00
816;DHT22;25928;51.062;13.752;2023-05-16T10:01:53;13.30;1.00
816;DHT22;25928;51.062;13.752;2023-05-16T10:04:19;13.30;1.00
816;DHT22;25928;51.062;13.752;2023-05-16T10:06:45;13.30;1.00
816;DHT22;25928;51.062;13.752;2023-05-16T10:09:14;13.20;1.00
816;DHT22;25928;51.062;13.752;2023-05-16T10:11:41;13.20;1.00
816;DHT22;25928;51.062;13.752;2023-05-16T10:14:10;13.50;1.00
816;DHT22;25928;51.062;13.752;2023-05-16T10:16:36;13.60;1.00
816;DHT22;25928;51.062;13.752;2023-05-16T10:19:02;13.60;1.00
816;DHT22;25928;51.062;13.752;2023-05-16T10:21:28;13.60;1.00
816;DHT22;25928;51.062;13.752;2023-05-16T10:23:58;13.80;1.00
816;DHT22;25928;51.062;13.752;2023-05-16T10:26:28;13.80;1.00
816;DHT22;25928;51.062;13.752;2023-05-16T10:28:54;13.80;1.00
816;DHT22;25928;51.062;13.752;2023-05-16T10:31:20;14.00;1.00
816;DHT22;25928;51.062;13.752;2023-05-16T10:33:46;14.00;1.00
816;DHT22;25928;51.062;13.752;2023-05-16T10:36:13;14.20;1.00
816;DHT22;25928;51.062;13.752;2023-05-16T10:38:43;14.10;1.00
816;DHT22;25928;51.062;13.752;2023-05-16T10:41:10;13.90;1.00
816;DHT22;25928;51.062;13.752;2023-05-16T10:43:36;13.70;1.00
816;DHT22;25928;51.062;13.752;2023-05-16T10:46:04;13.70;1.00
816;DHT22;25928;51.062;13.752;2023-05-16T10:48:34;13.70;1.00
816;DHT22;25928;51.062;13.752;2023-05-16T10:51:02;13.60;1.00
816;DHT22;25928;51.062;13.752;2023-05-16T10:53:28;13.60;1.00
816;DHT22;25928;51.062;13.752;2023-05-16T11:01:15;13.70;1.00
816;DHT22;25928;51.062;13.752;2023-05-16T11:06:24;13.70;1.00
816;DHT22;25928;51.062;13.752;2023-05-16T11:11:44;14.50;1.00
816;DHT22;25928;51.062;13.752;2023-05-16T11:22:09;15.10;1.00
816;DHT22;25928;51.062;13.752;2023-05-16T11:24:37;15.10;1.00
816;DHT22;25928;51.062;13.752;2023-05-16T11:27:04;15.10;1.00
816;DHT22;25928;51.062;13.752;2023-05-16T11:29:31;15.10;1.00
816;DHT22;25928;51.062;13.752;2023-05-16T11:31:59;14.80;1.00
816;DHT22;25928;51.062;13.752;2023-05-16T11:34:25;14.70;1.00
816;DHT22;25928;51.062;13.752;2023-05-16T11:36:51;14.70;1.00
816;DHT22;25928;51.062;13.752;2023-05-16T11:39:17;14.80;1.00
816;DHT22;25928;51.062;13.752;2023-05-16T11:41:46;14.80;1.00
816;DHT22;25928;51.062;13.752;2023-05-16T11:44:12;15.30;1.00
816;DHT22;25928;51.062;13.752;2023-05-16T11:46:41;15.70;1.00
816;DHT22;25928;51.062;13.752;2023-05-16T11:49:10;15.90;1.00
816;DHT22;25928;51.062;13.752;2023-05-16T11:51:40;16.20;1.00
816;DHT22;25928;51.062;13.752;2023-05-16T11:54:08;16.30;1.00
816;DHT22;25928;51.062;13.752;2023-05-16T11:56:35;16.50;1.00
816;DHT22;25928;51.062;13.752;2023-05-16T11:59:01;16.60;1.00
816;DHT22;25928;51.062;13.752;2023-05-16T12:01:34;16.60;1.00
816;DHT22;25928;51.062;13.752;2023-05-16T12:04:01;16.50;1.00
816;DHT22;25928;51.062;13.752;2023-05-16T12:06:26;16.30;1.00
816;DHT22;25928;51.062;13.752;2023-05-16T12:08:53;16.30;1.00
816;DHT22;25928;51.062;13.752;2023-05-16T12:11:21;16.30;1.00
816;DHT22;25928;51.062;13.752;2023-05-16T12:13:47;16.50;1.00
816;DHT22;25928;51.062;13.752;2023-05-16T12:16:13;16.80;1.00
816;DHT22;25928;51.062;13.752;2023-05-16T12:18:39;17.10;99.90
816;DHT22;25928;51.062;13.752;2023-05-16T12:21:05;17.10;99.90
816;DHT22;25928;51.062;13.752;2023-05-16T12:23:34;17.10;99.90
816;DHT22;25928;51.062;13.752;2023-05-16T12:25:59;17.10;99.90
816;DHT22;25928;51.062;13.752;2023-05-16T12:28:32;17.00;99.90
816;DHT22;25928;51.062;13.752;2023-05-16T12:31:05;17.00;99.90
816;DHT22;25928;51.062;13.752;2023-05-16T12:33:36;17.00;99.90
816;DHT22;25928;51.062;13.752;2023-05-16T12:36:02;16.80;99.90
816;DHT22;25928;51.062;13.752;2023-05-16T12:38:29;16.80;99.90
816;DHT22;25928;51.062;13.752;2023-05-16T12:40:57;16.90;99.90
816;DHT22;25928;51.062;13.752;2023-05-16T12:43:24;17.10;99.90
816;DHT22;25928;51.062;13.752;2023-05-16T12:45:54;16.80;99.90
816;DHT22;25928;51.062;13.752;2023-05-16T12:48:20;16.70;99.90
816;DHT22;25928;51.062;13.752;2023-05-16T12:50:46;16.70;99.90
816;DHT22;25928;51.062;13.752;2023-05-16T12:53:14;16.50;99.90
816;DHT22;25928;51.062;13.752;2023-05-16T12:55:40;16.40;99.90
816;DHT22;25928;51.062;13.752;2023-05-16T12:58:06;16.40;99.90
816;DHT22;25928;51.062;13.752;2023-05-16T13:00:32;16.50;99.90
816;DHT22;25928;51.062;13.752;2023-05-16T13:02:58;16.60;99.90
816;DHT22;25928;51.062;13.752;2023-05-16T13:05:23;16.70;99.90
816;DHT22;25928;51.062;13.752;2023-05-16T13:07:49;16.80;99.90
816;DHT22;25928;51.062;13.752;2023-05-16T13:10:19;16.60;99.90
816;DHT22;25928;51.062;13.752;2023-05-16T13:12:45;16.60;99.90
816;DHT22;25928;51.062;13.752;2023-05-16T13:15:11;16.40;99.90
816;DHT22;25928;51.062;13.752;2023-05-16T13:17:38;16.20;99.90
816;DHT22;25928;51.062;13.752;2023-05-16T13:20:05;16.00;1.00
816;DHT22;25928;51.062;13.752;2023-05-16T13:22:35;16.10;1.00
816;DHT22;25928;51.062;13.752;2023-05-16T13:25:01;16.10;1.00
816;DHT22;25928;51.062;13.752;2023-05-16T13:27:29;15.90;1.00
816;DHT22;25928;51.062;13.752;2023-05-16T13:29:54;15.80;1.00
816;DHT22;25928;51.062;13.752;2023-05-16T13:32:20;15.90;1.00
816;DHT22;25928;51.062;13.752;2023-05-16T13:34:45;15.90;1.00
816;DHT22;25928;51.062;13.752;2023-05-16T13:37:11;16.00;1.00
816;DHT22;25928;51.062;13.752;2023-05-16T13:39:37;16.10;1.00
816;DHT22;25928;51.062;13.752;2023-05-16T13:42:02;16.30;1.00
816;DHT22;25928;51.062;13.752;2023-05-16T13:44:28;16.60;99.90
816;DHT22;25928;51.062;13.752;2023-05-16T13:46:54;16.80;99.90
816;DHT22;25928;51.062;13.752;2023-05-16T13:49:21;17.00;99.90
816;DHT22;25928;51.062;13.752;2023-05-16T13:51:46;16.90;99.90
816;DHT22;25928;51.062;13.752;2023-05-16T13:54:12;17.00;99.90
816;DHT22;25928;51.062;13.752;2023-05-16T13:56:38;17.20;99.90
816;DHT22;25928;51.062;13.752;2023-05-16T13:59:03;17.30;99.90
816;DHT22;25928;51.062;13.752;2023-05-16T14:01:29;17.30;99.90
816;DHT22;25928;51.062;13.752;2023-05-16T14:03:54;17.20;99.90
816;DHT22;25928;51.062;13.752;2023-05-16T14:06:20;16.90;99.90
816;DHT22;25928;51.062;13.752;2023-05-16T14:08:46;16.40;99.90
816;DHT22;25928;51.062;13.752;2023-05-16T14:11:11;16.20;99.90
816;DHT22;25928;51.062;13.752;2023-05-16T14:13:37;15.80;1.00
816;DHT22;25928;51.062;13.752;2023-05-16T14:16:05;15.50;1.00
816;DHT22;25928;51.062;13.752;2023-05-16T14:18:31;15.50;1.00
816;DHT22;25928;51.062;13.752;2023-05-16T14:20:57;15.60;1.00
816;DHT22;25928;51.062;13.752;2023-05-16T14:23:22;15.70;1.00
816;DHT22;25928;51.062;13.752;2023-05-16T14:25:48;15.80;1.00
816;DHT22;25928;51.062;13.752;2023-05-16T14:28:14;16.00;1.00
816;DHT22;25928;51.062;13.752;2023-05-16T14:30:39;16.00;1.00
816;DHT22;25928;51.062;13.752;2023-05-16T14:33:05;15.90;1.00
816;DHT22;25928;51.062;13.752;2023-05-16T14:35:31;15.80;1.00
816;DHT22;25928;51.062;13.752;2023-05-16T14:37:57;15.70;1.00
816;DHT22;25928;51.062;13.752;2023-05-16T14:40:23;15.60;1.00
816;DHT22;25928;51.062;13.752;2023-05-16T14:42:48;15.50;1.00
816;DHT22;25928;51.062;13.752;2023-05-16T14:45:15;15.30;1.00
816;DHT22;25928;51.062;13.752;2023-05-16T14:47:41;15.10;1.00
816;DHT22;25928;51.062;13.752;2023-05-16T14:50:07;15.20;1.00
816;DHT22;25928;51.062;13.752;2023-05-16T14:52:33;15.30;1.00
816;DHT22;25928;51.062;13.752;2023-05-16T14:54:58;15.40;1.00
816;DHT22;25928;51.062;13.752;2023-05-16T14:57:25;15.40;1.00
816;DHT22;25928;51.062;13.752;2023-05-16T14:59:50;15.30;1.00
816;DHT22;25928;51.062;13.752;2023-05-16T15:02:16;15.20;1.00
816;DHT22;25928;51.062;13.752;2023-05-16T15:04:42;15.10;1.00
816;DHT22;25928;51.062;13.752;2023-05-16T15:07:07;15.00;1.00
816;DHT22;25928;51.062;13.752;2023-05-16T15:09:33;15.10;1.00
816;DHT22;25928;51.062;13.752;2023-05-16T15:11:59;15.00;1.00
816;DHT22;25928;51.062;13.752;2023-05-16T15:14:26;15.00;1.00
816;DHT22;25928;51.062;13.752;2023-05-16T15:16:51;14.80;1.00
816;DHT22;25928;51.062;13.752;2023-05-16T15:19:17;14.80;1.00
816;DHT22;25928;51.062;13.752;2023-05-16T15:21:42;14.90;1.00
816;DHT22;25928;51.062;13.752;2023-05-16T15:24:08;14.90;1.00
816;DHT22;25928;51.062;13.752;2023-05-16T15:26:34;14.70;1.00
816;DHT22;25928;51.062;13.752;2023-05-16T15:28:59;14.70;1.00
816;DHT22;25928;51.062;13.752;2023-05-16T15:31:25;14.90;1.00
816;DHT22;25928;51.062;13.752;2023-05-16T15:33:51;14.80;1.00
816;DHT22;25928;51.062;13.752;2023-05-16T15:36:16;14.70;1.00
816;DHT22;25928;51.062;13.752;2023-05-16T15:38:42;14.80;1.00
816;DHT22;25928;51.062;13.752;2023-05-16T15:41:10;14.70;1.00
816;DHT22;25928;51.062;13.752;2023-05-16T15:43:36;14.70;1.00
816;DHT22;25928;51.062;13.752;2023-05-16T15:46:02;14.90;1.00
816;DHT22;25928;51.062;13.752;2023-05-16T15:48:27;15.10;1.00
816;DHT22;25928;51.062;13.752;2023-05-16T15:50:53;15.30;1.00
816;DHT22;25928;51.062;13.752;2023-05-16T15:53:18;15.30;1.00
816;DHT22;25928;51.062;13.752;2023-05-16T15:55:44;15.40;1.00
816;DHT22;25928;51.062;13.752;2023-05-16T15:58:12;15.50;1.00
816;DHT22;25928;51.062;13.752;2023-05-16T16:00:38;15.70;1.00
816;DHT22;25928;51.062;13.752;2023-05-16T16:03:05;15.70;1.00
816;DHT22;25928;51.062;13.752;2023-05-16T16:05:31;15.70;1.00
816;DHT22;25928;51.062;13.752;2023-05-16T16:07:57;15.80;1.00
816;DHT22;25928;51.062;13.752;2023-05-16T16:10:22;15.90;1.00
816;DHT22;25928;51.062;13.752;2023-05-16T16:13:14;15.90;99.90
816;DHT22;25928;51.062;13.752;2023-05-16T16:15:40;15.80;99.90
816;DHT22;25928;51.062;13.752;2023-05-16T16:18:06;15.80;99.90
816;DHT22;25928;51.062;13.752;2023-05-16T16:20:32;15.90;99.90
816;DHT22;25928;51.062;13.752;2023-05-16T16:22:58;16.10;99.90
816;DHT22;25928;51.062;13.752;2023-05-16T16:25:24;16.30;99.90